Time;durP1;ratioP1;P1;durP2;ratioP2;P2;SDS_P1;SDS_P2;PMS_P1;PMS_P2;Temp;Humidity;BMP_temperature;BMP_pressure;BME280_temperature;BME280_humidity;BME280_pressure;Samples;Min_cycle;Max_cycle;Signal;HPM_P1;HPM_P2
2022/02/13 00:00:21;;;;;;;26.52;14.98;;;1.20;99.90;;;;;;4991529;28;20114;-45
2022/02/13 00:02:47;;;;;;;22.70;14.13;;;1.10;99.90;;;;;;4991754;28;20474;-45
2022/02/13 00:05:13;;;;;;;26.90;13.02;;;1.10;99.90;;;;;;4985373;28;20027;-46
2022/02/13 00:07:39;;;;;;;20.05;14.05;;;1.10;99.90;;;;;;4992005;28;20382;-48
2022/02/13 00:10:08;;;;;;;22.65;14.50;;;1.10;99.90;;;;;;5023397;28;20025;-44
2022/02/13 00:12:33;;;;;;;22.42;13.15;;;1.10;99.90;;;;;;5007554;28;20109;-46
2022/02/13 00:14:59;;;;;;;23.80;13.68;;;1.20;99.90;;;;;;4992028;28;20019;-46
2022/02/13 00:17:25;;;;;;;22.80;12.35;;;1.10;99.90;;;;;;4991894;28;20651;-44
2022/02/13 00:19:50;;;;;;;21.33;11.73;;;1.00;99.90;;;;;;4991410;28;20037;-45
2022/02/13 00:22:21;;;;;;;17.42;10.77;;;0.90;99.90;;;;;;4979768;28;20031;-47
2022/02/13 00:24:47;;;;;;;22.27;13.23;;;0.90;99.90;;;;;;4991253;28;20022;-46
2022/02/13 00:27:12;;;;;;;24.80;13.15;;;0.80;99.90;;;;;;4991616;28;20110;-46
2022/02/13 00:29:38;;;;;;;21.45;12.07;;;0.90;99.90;;;;;;4995553;28;20068;-44
2022/02/13 00:32:05;;;;;;;23.83;12.50;;;0.90;99.90;;;;;;5012248;28;20037;-45
2022/02/13 00:34:31;;;;;;;20.90;12.50;;;0.90;99.90;;;;;;5001054;28;20505;-43
2022/02/13 00:36:57;;;;;;;23.75;11.77;;;0.90;99.90;;;;;;4992221;28;20022;-48
2022/02/13 00:39:22;;;;;;;18.77;11.82;;;0.90;99.90;;;;;;4991764;28;20022;-45
2022/02/13 00:41:48;;;;;;;20.30;11.73;;;0.90;99.90;;;;;;4973994;28;20042;-51
2022/02/13 00:44:13;;;;;;;24.52;14.40;;;0.80;99.90;;;;;;4972326;28;20450;-49
2022/02/13 00:46:39;;;;;;;24.85;14.23;;;0.80;99.90;;;;;;4972405;28;20118;-46
2022/02/13 00:49:04;;;;;;;20.60;12.32;;;0.80;99.90;;;;;;4972578;28;20534;-46
2022/02/13 00:51:30;;;;;;;24.08;14.68;;;0.80;99.90;;;;;;4972464;28;20045;-51
2022/02/13 00:53:56;;;;;;;24.17;14.13;;;0.80;99.90;;;;;;4970811;28;20073;-45
2022/02/13 00:56:21;;;;;;;28.17;14.35;;;0.70;99.90;;;;;;4972270;28;20055;-49
2022/02/13 00:58:47;;;;;;;23.17;14.75;;;0.70;99.90;;;;;;4972264;28;20113;-48
2022/02/13 01:01:13;;;;;;;27.40;15.80;;;0.80;99.90;;;;;;4971741;28;20085;-47
2022/02/13 01:03:40;;;;;;;125.03;58.60;;;0.90;99.90;;;;;;4971135;28;20062;-47
2022/02/13 01:06:06;;;;;;;26.58;17.55;;;0.90;99.90;;;;;;4971830;28;20118;-46
2022/02/13 01:08:33;;;;;;;27.02;15.65;;;0.90;99.90;;;;;;4971514;28;20034;-51
2022/02/13 01:10:59;;;;;;;24.48;14.88;;;0.90;99.90;;;;;;4971424;28;20034;-49
2022/02/13 01:13:24;;;;;;;22.27;14.77;;;0.90;99.90;;;;;;4970776;28;20027;-47
2022/02/13 01:15:50;;;;;;;33.10;16.98;;;0.90;99.90;;;;;;4972649;28;20106;-49
2022/02/13 01:18:15;;;;;;;29.92;16.83;;;0.90;99.90;;;;;;4971374;28;20482;-45
2022/02/13 01:20:41;;;;;;;21.75;14.32;;;0.90;99.90;;;;;;4971859;28;20026;-49
2022/02/13 01:23:07;;;;;;;28.88;16.80;;;0.90;99.90;;;;;;4972731;28;20027;-47
2022/02/13 01:25:32;;;;;;;23.45;15.52;;;1.00;99.90;;;;;;4974795;28;20037;-48
2022/02/13 01:27:59;;;;;;;29.08;15.98;;;1.00;99.90;;;;;;4957287;28;20034;-46
2022/02/13 01:30:25;;;;;;;26.45;16.08;;;1.00;99.90;;;;;;4974595;28;20446;-48
2022/02/13 01:32:51;;;;;;;26.08;15.95;;;1.00;99.90;;;;;;4974126;28;20026;-46
2022/02/13 01:35:17;;;;;;;30.88;16.10;;;0.90;99.90;;;;;;4975046;28;20487;-47
2022/02/13 01:37:42;;;;;;;32.70;15.48;;;0.90;99.90;;;;;;4974024;28;20125;-52
2022/02/13 01:40:08;;;;;;;30.25;17.20;;;0.90;99.90;;;;;;4975217;28;20059;-52
2022/02/13 01:42:34;;;;;;;29.65;16.65;;;0.90;99.90;;;;;;4975432;28;20035;-52
2022/02/13 01:45:00;;;;;;;25.13;15.20;;;0.90;99.90;;;;;;4975354;28;20037;-49
2022/02/13 01:47:29;;;;;;;28.05;16.25;;;0.90;99.90;;;;;;4975704;28;20031;-46
2022/02/13 01:49:55;;;;;;;31.58;16.33;;;0.80;99.90;;;;;;4975533;28;20034;-51
2022/02/13 01:52:20;;;;;;;26.65;16.25;;;0.80;99.90;;;;;;4975292;28;20453;-52
2022/02/13 01:54:46;;;;;;;25.50;15.77;;;0.80;99.90;;;;;;4974912;28;20027;-46
2022/02/13 01:57:12;;;;;;;31.17;16.25;;;0.90;99.90;;;;;;4974883;28;20632;-48
2022/02/13 01:59:38;;;;;;;27.90;15.82;;;0.90;99.90;;;;;;4939416;28;1034592;-51
2022/02/13 02:02:04;;;;;;;30.25;16.75;;;0.90;99.90;;;;;;4976312;28;20138;-48
2022/02/13 02:04:30;;;;;;;28.13;15.50;;;0.90;99.90;;;;;;4976043;28;20029;-47
2022/02/13 02:06:55;;;;;;;35.13;17.20;;;0.80;99.90;;;;;;4976150;28;20023;-51
2022/02/13 02:09:24;;;;;;;23.65;16.10;;;0.80;99.90;;;;;;4975688;28;20501;-45
2022/02/13 02:11:51;;;;;;;28.02;15.45;;;0.70;99.90;;;;;;4975429;28;20059;-48
2022/02/13 02:14:17;;;;;;;32.50;17.33;;;0.60;99.90;;;;;;4973857;28;20397;-47
2022/02/13 02:16:42;;;;;;;28.23;17.08;;;0.70;99.90;;;;;;4974282;28;20027;-51
2022/02/13 02:19:09;;;;;;;31.92;16.95;;;0.70;99.90;;;;;;4975506;28;20026;-49
2022/02/13 02:21:35;;;;;;;29.60;16.42;;;0.80;99.90;;;;;;4975552;28;20029;-47
2022/02/13 02:24:01;;;;;;;27.45;15.45;;;0.80;99.90;;;;;;4975386;28;20454;-49
2022/02/13 02:26:27;;;;;;;27.38;16.70;;;0.80;99.90;;;;;;4975805;28;20030;-48
2022/02/13 02:28:52;;;;;;;33.70;17.52;;;0.80;99.90;;;;;;4975446;28;20038;-50
2022/02/13 02:31:19;;;;;;;37.78;17.35;;;0.70;99.90;;;;;;4975255;28;20061;-47
2022/02/13 02:33:45;;;;;;;27.58;16.88;;;0.70;99.90;;;;;;4974265;28;20022;-46
2022/02/13 02:36:17;;;;;;;34.60;18.70;;;0.60;99.90;;;;;;4975565;28;20107;-51
2022/02/13 02:38:43;;;;;;;35.25;17.83;;;0.60;99.90;;;;;;4975448;28;20026;-48
2022/02/13 02:41:09;;;;;;;36.95;19.60;;;0.60;99.90;;;;;;4975342;28;20509;-48
2022/02/13 02:43:34;;;;;;;34.25;18.77;;;0.60;99.90;;;;;;4975141;28;20023;-47
2022/02/13 02:46:00;;;;;;;33.33;19.40;;;0.50;99.90;;;;;;4975432;28;20030;-43
2022/02/13 02:48:25;;;;;;;26.10;16.77;;;0.50;99.90;;;;;;4975243;28;20031;-51
2022/02/13 02:50:51;;;;;;;29.25;17.50;;;0.50;99.90;;;;;;4974843;28;20035;-47
2022/02/13 02:53:16;;;;;;;28.67;18.00;;;0.40;99.90;;;;;;4974598;28;20055;-46
2022/02/13 02:55:42;;;;;;;27.70;16.90;;;0.40;99.90;;;;;;4974539;28;20058;-47
2022/02/13 02:58:08;;;;;;;27.50;17.73;;;0.30;99.90;;;;;;4975136;28;20045;-49
2022/02/13 03:00:34;;;;;;;24.98;16.80;;;0.30;99.90;;;;;;4974584;28;20031;-44
2022/02/13 03:02:59;;;;;;;29.25;16.73;;;0.40;99.90;;;;;;4974295;28;20054;-47
2022/02/13 03:05:25;;;;;;;26.50;15.55;;;0.40;99.90;;;;;;4974712;28;20022;-43
2022/02/13 03:07:50;;;;;;;29.08;18.75;;;0.50;99.90;;;;;;4989536;28;20448;-48
2022/02/13 03:10:15;;;;;;;34.72;17.30;;;0.50;99.90;;;;;;4974432;28;20031;-46
2022/02/13 03:12:41;;;;;;;27.40;18.27;;;0.50;99.90;;;;;;4974162;28;20121;-43
2022/02/13 03:15:07;;;;;;;33.72;18.63;;;0.40;99.90;;;;;;4974507;28;20031;-47
2022/02/13 03:17:33;;;;;;;35.25;17.58;;;0.40;99.90;;;;;;4974495;28;20027;-49
2022/02/13 03:19:58;;;;;;;38.85;18.15;;;0.30;99.90;;;;;;4974128;28;20022;-46
2022/02/13 03:22:24;;;;;;;30.15;17.40;;;0.20;99.90;;;;;;4973968;28;20022;-45
2022/02/13 03:24:49;;;;;;;33.40;18.70;;;0.30;99.90;;;;;;4973971;28;20031;-46
2022/02/13 03:27:15;;;;;;;26.15;16.88;;;0.30;99.90;;;;;;4974301;28;20395;-49
2022/02/13 03:29:40;;;;;;;31.75;18.00;;;0.30;99.90;;;;;;4974329;28;20479;-46
2022/02/13 03:32:06;;;;;;;31.33;18.50;;;0.30;99.90;;;;;;4974289;28;20054;-49
2022/02/13 03:34:32;;;;;;;40.00;19.48;;;0.30;99.90;;;;;;4972603;28;20270;-48
2022/02/13 03:36:57;;;;;;;30.23;17.85;;;0.30;99.90;;;;;;4973959;28;20035;-48
2022/02/13 03:39:23;;;;;;;28.05;17.60;;;0.40;99.90;;;;;;4974381;28;20026;-49
2022/02/13 03:41:48;;;;;;;33.35;19.15;;;0.30;99.90;;;;;;4974084;28;20030;-43
2022/02/13 03:44:14;;;;;;;32.78;18.13;;;0.30;99.90;;;;;;4972519;28;20582;-50
2022/02/13 03:46:39;;;;;;;29.30;17.77;;;0.30;99.90;;;;;;4974042;28;20085;-49
2022/02/13 03:49:07;;;;;;;32.42;18.17;;;0.30;99.90;;;;;;4973855;28;20403;-47
2022/02/13 03:51:33;;;;;;;29.00;17.80;;;0.20;99.90;;;;;;4973635;28;20034;-46
2022/02/13 03:53:58;;;;;;;29.15;17.17;;;0.10;99.90;;;;;;4973465;28;20045;-46
2022/02/13 03:56:24;;;;;;;36.80;19.90;;;0.20;99.90;;;;;;4973332;28;20526;-45
2022/02/13 03:58:49;;;;;;;42.70;18.50;;;0.20;99.90;;;;;;4974012;28;20023;-45
2022/02/13 04:01:15;;;;;;;36.55;19.75;;;0.20;99.90;;;;;;4973682;28;20042;-47
2022/02/13 04:03:40;;;;;;;31.83;18.70;;;0.20;99.90;;;;;;4972184;28;20027;-46
2022/02/13 04:06:06;;;;;;;34.63;18.50;;;0.20;99.90;;;;;;4973849;28;20033;-47
2022/02/13 04:08:31;;;;;;;33.60;17.88;;;0.30;99.90;;;;;;4972543;28;20504;-47
2022/02/13 04:10:58;;;;;;;30.80;17.83;;;0.30;99.90;;;;;;4973769;28;20033;-46
2022/02/13 04:13:24;;;;;;;38.63;18.75;;;0.20;99.90;;;;;;4973109;28;20414;-46
2022/02/13 04:15:49;;;;;;;25.38;17.67;;;0.30;99.90;;;;;;4973322;28;20035;-48
2022/02/13 04:18:16;;;;;;;36.63;19.02;;;0.30;99.90;;;;;;4973635;28;20467;-46
2022/02/13 04:20:42;;;;;;;31.35;17.90;;;0.40;99.90;;;;;;4973517;28;20350;-46
2022/02/13 04:23:08;;;;;;;31.98;17.83;;;0.30;99.90;;;;;;4973245;28;20026;-44
2022/02/13 04:25:35;;;;;;;26.45;16.65;;;0.30;99.90;;;;;;4973552;28;20110;-43
2022/02/13 04:28:01;;;;;;;31.17;17.15;;;0.30;99.90;;;;;;4974211;28;20034;-50
2022/02/13 04:30:26;;;;;;;25.58;17.02;;;0.30;99.90;;;;;;4972009;28;20584;-48
2022/02/13 04:32:53;;;;;;;32.72;16.95;;;0.20;99.90;;;;;;4972990;28;20077;-45
2022/02/13 04:35:19;;;;;;;29.45;17.05;;;0.20;99.90;;;;;;4973556;28;20166;-46
2022/02/13 04:37:49;;;;;;;30.55;17.88;;;0.00;99.90;;;;;;4972341;28;20491;-43
2022/02/13 04:40:15;;;;;;;31.80;16.23;;;-0.10;99.90;;;;;;4973583;28;20089;-47
2022/02/13 04:42:40;;;;;;;33.30;18.30;;;-0.20;99.90;;;;;;4973645;28;20498;-47
2022/02/13 04:45:06;;;;;;;26.98;17.52;;;-0.20;99.90;;;;;;4973359;28;20041;-46
2022/02/13 04:47:32;;;;;;;26.30;16.38;;;-0.30;99.90;;;;;;4984607;28;20035;-48
2022/02/13 04:49:57;;;;;;;32.15;18.63;;;-0.30;99.90;;;;;;4973467;28;20114;-45
2022/02/13 04:52:23;;;;;;;26.35;17.55;;;-0.30;99.90;;;;;;4973427;28;20450;-46
2022/02/13 04:54:48;;;;;;;31.88;16.73;;;-0.30;99.90;;;;;;4973387;28;20485;-44
2022/02/13 04:57:14;;;;;;;29.63;16.15;;;-0.30;99.90;;;;;;4976229;28;20432;-45
2022/02/13 04:59:40;;;;;;;25.95;16.80;;;-0.30;99.90;;;;;;4977271;28;20027;-48
2022/02/13 05:02:05;;;;;;;26.27;16.00;;;-0.30;99.90;;;;;;4977156;28;20038;-49
2022/02/13 05:04:32;;;;;;;28.35;18.73;;;-0.30;99.90;;;;;;4977171;28;20030;-47
2022/02/13 05:06:57;;;;;;;34.50;17.35;;;-0.30;99.90;;;;;;4977250;28;20035;-48
2022/02/13 05:09:23;;;;;;;29.70;17.60;;;-0.20;99.90;;;;;;4975997;28;20398;-48
2022/02/13 05:11:48;;;;;;;23.95;15.82;;;-0.20;99.90;;;;;;4976811;28;20033;-49
2022/02/13 05:14:14;;;;;;;29.17;17.05;;;-0.20;99.90;;;;;;4977209;28;20058;-48
2022/02/13 05:16:40;;;;;;;29.10;17.60;;;-0.20;99.90;;;;;;4977294;28;20030;-43
2022/02/13 05:19:06;;;;;;;32.20;18.75;;;-0.20;99.90;;;;;;4975440;28;20023;-50
2022/02/13 05:21:31;;;;;;;38.80;16.38;;;-0.30;99.90;;;;;;4975804;28;20033;-46
2022/02/13 05:23:57;;;;;;;32.63;16.92;;;-0.20;99.90;;;;;;4976287;28;20450;-48
2022/02/13 05:26:22;;;;;;;31.98;17.73;;;-0.20;99.90;;;;;;4975467;28;20023;-46
2022/02/13 05:28:48;;;;;;;30.92;17.00;;;-0.20;99.90;;;;;;4976758;28;20039;-46
2022/02/13 05:31:13;;;;;;;27.80;16.55;;;-0.20;99.90;;;;;;4976510;28;20027;-49
2022/02/13 05:33:39;;;;;;;29.02;17.02;;;-0.20;99.90;;;;;;4975821;28;20030;-44
2022/02/13 05:36:04;;;;;;;27.95;16.52;;;-0.30;99.90;;;;;;4975093;28;20019;-46
2022/02/13 05:38:30;;;;;;;33.08;18.08;;;-0.20;99.90;;;;;;4976242;28;20026;-46
2022/02/13 05:40:56;;;;;;;25.33;16.55;;;-0.10;99.90;;;;;;4976175;28;20026;-45
2022/02/13 05:43:21;;;;;;;33.10;18.08;;;-0.10;99.90;;;;;;4975898;28;20244;-46
2022/02/13 05:45:46;;;;;;;29.00;16.88;;;-0.10;99.90;;;;;;4975931;28;20111;-47
2022/02/13 05:48:13;;;;;;;25.65;15.52;;;-0.10;99.90;;;;;;4976639;28;20082;-46
2022/02/13 05:50:41;;;;;;;31.10;16.40;;;-0.20;99.90;;;;;;4976287;28;20018;-46
2022/02/13 05:53:07;;;;;;;29.60;18.13;;;-0.20;99.90;;;;;;4975996;28;20403;-48
2022/02/13 05:55:32;;;;;;;29.23;17.27;;;-0.30;99.90;;;;;;4975586;28;20032;-48
2022/02/13 05:57:58;;;;;;;26.67;15.23;;;-0.30;99.90;;;;;;4976395;28;20475;-48
2022/02/13 06:00:23;;;;;;;26.80;17.20;;;-0.40;99.90;;;;;;4975247;28;20390;-51
2022/02/13 06:02:49;;;;;;;31.13;16.58;;;-0.40;99.90;;;;;;4975267;28;20026;-46
2022/02/13 06:05:14;;;;;;;31.48;17.88;;;-0.40;99.90;;;;;;4976568;28;20023;-45
2022/02/13 06:07:41;;;;;;;33.78;18.38;;;-0.40;99.90;;;;;;4973967;28;20105;-47
2022/02/13 06:10:09;;;;;;;26.05;15.98;;;-0.40;99.90;;;;;;4976445;28;20023;-49
2022/02/13 06:12:34;;;;;;;29.25;16.42;;;-0.30;99.90;;;;;;4975848;28;20030;-47
2022/02/13 06:15:00;;;;;;;26.45;16.35;;;-0.30;99.90;;;;;;4974653;28;20018;-46
2022/02/13 06:17:25;;;;;;;37.80;18.75;;;-0.30;99.90;;;;;;4975989;28;20027;-49
2022/02/13 06:19:51;;;;;;;31.63;17.45;;;-0.30;99.90;;;;;;4975829;28;20030;-46
2022/02/13 06:22:16;;;;;;;29.25;18.38;;;-0.30;99.90;;;;;;4976012;28;20506;-51
2022/02/13 06:24:42;;;;;;;30.10;16.45;;;-0.20;99.90;;;;;;4974312;28;20368;-49
2022/02/13 06:27:07;;;;;;;29.33;17.73;;;-0.10;99.90;;;;;;4975922;28;20368;-46
2022/02/13 06:29:33;;;;;;;29.33;18.08;;;-0.20;99.90;;;;;;4975741;28;20091;-46
2022/02/13 06:32:00;;;;;;;26.70;18.05;;;-0.30;99.90;;;;;;4976193;28;20573;-46
2022/02/13 06:34:26;;;;;;;29.05;17.38;;;-0.30;99.90;;;;;;4975598;28;20110;-47
2022/02/13 06:36:52;;;;;;;32.80;18.20;;;-0.40;99.90;;;;;;4975491;28;20448;-48
2022/02/13 06:39:18;;;;;;;31.92;18.80;;;-0.40;99.90;;;;;;4975621;28;20395;-48
2022/02/13 06:41:43;;;;;;;28.73;16.83;;;-0.30;99.90;;;;;;4975513;28;20019;-48
2022/02/13 06:44:09;;;;;;;34.15;17.27;;;-0.20;99.90;;;;;;4974193;28;20030;-48
2022/02/13 06:46:34;;;;;;;28.63;16.55;;;-0.20;99.90;;;;;;4975266;28;20026;-47
2022/02/13 06:49:00;;;;;;;31.65;18.48;;;-0.10;99.90;;;;;;4973605;28;20027;-48
2022/02/13 06:51:26;;;;;;;28.23;15.68;;;-0.10;99.90;;;;;;4989736;28;20118;-48
2022/02/13 06:53:52;;;;;;;31.10;17.58;;;-0.10;99.90;;;;;;4973310;28;20050;-47
2022/02/13 06:56:17;;;;;;;26.08;15.50;;;0.00;99.90;;;;;;4973021;28;20019;-46
2022/02/13 06:58:43;;;;;;;24.15;15.52;;;0.00;99.90;;;;;;4974451;28;20077;-46
2022/02/13 07:01:14;;;;;;;27.33;16.60;;;0.10;99.90;;;;;;4974579;28;20034;-49
2022/02/13 07:03:39;;;;;;;27.38;16.67;;;0.10;99.90;;;;;;4974301;28;20050;-46
2022/02/13 07:06:06;;;;;;;24.35;15.77;;;0.30;99.90;;;;;;4989658;28;20027;-47
2022/02/13 07:08:32;;;;;;;25.35;14.40;;;0.40;99.90;;;;;;4974938;28;20034;-47
2022/02/13 07:10:57;;;;;;;27.70;14.75;;;0.60;99.90;;;;;;4973212;28;20033;-45
2022/02/13 07:13:23;;;;;;;19.38;12.98;;;0.70;99.90;;;;;;4974056;28;20027;-48
2022/02/13 07:18:23;;;;;;;19.33;13.02;;;1.10;99.90;;;;;;5011534;28;20053;-47
2022/02/13 07:20:48;;;;;;;19.92;13.18;;;1.20;99.90;;;;;;5013495;28;20014;-46
2022/02/13 07:23:14;;;;;;;22.77;14.85;;;1.40;99.90;;;;;;5012678;28;20033;-47
2022/02/13 07:25:39;;;;;;;19.52;13.23;;;1.50;99.90;;;;;;5013066;28;20081;-47
2022/02/13 07:30:49;;;;;;;22.70;13.98;;;1.70;99.90;;;;;;5012800;28;20033;-49
2022/02/13 07:33:15;;;;;;;21.10;12.38;;;1.70;99.90;;;;;;5010945;28;20430;-47
2022/02/13 07:35:43;;;;;;;20.60;13.45;;;1.50;99.90;;;;;;5011358;28;20026;-45
2022/02/13 07:38:09;;;;;;;21.08;12.73;;;1.40;99.90;;;;;;5012417;28;20026;-46
2022/02/13 07:40:34;;;;;;;21.67;14.30;;;1.20;99.90;;;;;;5012578;28;20036;-47
2022/02/13 07:43:00;;;;;;;21.63;14.30;;;1.10;99.90;;;;;;5010742;28;20117;-51
2022/02/13 07:45:26;;;;;;;21.73;13.90;;;1.00;99.90;;;;;;5012439;28;20482;-48
2022/02/13 07:47:51;;;;;;;19.85;13.73;;;1.00;99.90;;;;;;5012253;28;20018;-47
2022/02/13 07:50:17;;;;;;;26.67;15.93;;;0.90;99.90;;;;;;5010879;28;20029;-47
2022/02/13 07:52:42;;;;;;;25.00;16.95;;;0.80;99.90;;;;;;5012062;28;20600;-52
2022/02/13 07:55:08;;;;;;;26.13;17.85;;;0.80;99.90;;;;;;5010548;28;20092;-45
2022/02/13 07:57:34;;;;;;;25.15;16.95;;;0.80;99.90;;;;;;5012148;28;20026;-48
2022/02/13 07:59:59;;;;;;;25.60;16.23;;;0.80;99.90;;;;;;5010862;28;20129;-46
2022/02/13 08:02:25;;;;;;;23.42;16.13;;;0.90;99.90;;;;;;5010757;28;20477;-50
2022/02/13 08:04:50;;;;;;;24.05;15.73;;;0.80;99.90;;;;;;5011874;28;20018;-46
2022/02/13 08:07:16;;;;;;;23.30;15.30;;;0.90;99.90;;;;;;5011986;28;20084;-47
2022/02/13 08:09:42;;;;;;;22.92;14.20;;;1.00;99.90;;;;;;5010690;28;20152;-46
2022/02/13 08:12:09;;;;;;;27.92;15.55;;;1.10;99.90;;;;;;5011978;28;20022;-44
2022/02/13 08:14:35;;;;;;;27.58;16.52;;;1.20;99.90;;;;;;5011620;28;20029;-48
2022/02/13 08:17:00;;;;;;;26.95;14.63;;;1.10;99.90;;;;;;5011736;28;20038;-47
2022/02/13 08:19:26;;;;;;;25.73;15.85;;;1.20;99.90;;;;;;5011995;28;20034;-49
2022/02/13 08:21:51;;;;;;;22.25;14.23;;;1.20;99.90;;;;;;5006267;28;20572;-43
2022/02/13 08:24:17;;;;;;;19.88;14.02;;;1.30;99.90;;;;;;4994235;28;20076;-48
2022/02/13 08:26:42;;;;;;;20.40;14.48;;;1.30;99.90;;;;;;4994858;28;20030;-44
2022/02/13 08:29:08;;;;;;;23.13;14.15;;;1.30;99.90;;;;;;5011740;28;20025;-44
2022/02/13 08:31:33;;;;;;;24.48;14.35;;;1.40;99.90;;;;;;5011102;28;20022;-45
2022/02/13 08:33:59;;;;;;;21.60;15.80;;;1.40;99.90;;;;;;5007062;28;20046;-49
2022/02/13 08:36:24;;;;;;;29.77;15.38;;;1.50;99.90;;;;;;5007863;28;20037;-49
2022/02/13 08:38:50;;;;;;;21.35;15.85;;;1.50;99.90;;;;;;4994200;28;20022;-47
2022/02/13 08:41:16;;;;;;;22.77;15.40;;;1.60;99.90;;;;;;5010157;28;20022;-44
2022/02/13 08:43:41;;;;;;;27.60;15.18;;;1.60;99.90;;;;;;4993746;28;20031;-44
2022/02/13 08:46:08;;;;;;;27.75;15.55;;;1.70;99.90;;;;;;4995921;28;20072;-48
2022/02/13 08:48:34;;;;;;;22.25;14.60;;;1.80;99.90;;;;;;5010583;28;20474;-47
2022/02/13 08:50:59;;;;;;;25.13;15.35;;;1.70;99.90;;;;;;4998637;28;20037;-49
2022/02/13 08:53:25;;;;;;;22.13;13.60;;;1.70;99.90;;;;;;4991483;28;20026;-45
2022/02/13 08:55:50;;;;;;;23.33;15.45;;;1.80;99.90;;;;;;4991533;28;20061;-46
2022/02/13 08:58:16;;;;;;;25.98;15.35;;;1.80;99.90;;;;;;5006593;28;20042;-45
2022/02/13 09:00:42;;;;;;;21.77;14.85;;;1.90;99.90;;;;;;5009411;28;20105;-53
2022/02/13 09:03:07;;;;;;;22.48;14.65;;;2.00;99.90;;;;;;5010048;28;20073;-46
2022/02/13 09:05:33;;;;;;;21.33;14.93;;;2.10;99.90;;;;;;5011154;28;20076;-44
2022/02/13 09:07:59;;;;;;;19.83;13.90;;;2.10;99.90;;;;;;5011338;28;20079;-46
2022/02/13 09:10:25;;;;;;;24.58;14.70;;;2.20;99.90;;;;;;5011505;28;20022;-45
2022/02/13 09:12:50;;;;;;;25.45;15.30;;;2.30;99.90;;;;;;5010845;28;20041;-47
2022/02/13 09:15:16;;;;;;;22.85;15.70;;;2.30;99.90;;;;;;5011436;28;20029;-47
2022/02/13 09:17:42;;;;;;;22.95;14.70;;;2.30;99.90;;;;;;5011189;28;20033;-40
2022/02/13 09:20:08;;;;;;;22.05;14.88;;;2.50;99.90;;;;;;5011509;28;20026;-47
2022/02/13 09:22:34;;;;;;;18.17;13.85;;;2.70;99.90;;;;;;5011262;28;20022;-45
2022/02/13 09:25:00;;;;;;;18.75;13.25;;;3.10;99.90;;;;;;5010791;28;20029;-46
2022/02/13 09:27:25;;;;;;;17.25;12.80;;;5.00;99.90;;;;;;5011053;28;20064;-49
2022/02/13 09:29:52;;;;;;;18.40;12.30;;;5.10;99.90;;;;;;5011253;28;20473;-44
2022/02/13 09:32:18;;;;;;;17.02;11.77;;;6.30;99.90;;;;;;5011082;28;20018;-47
2022/02/13 09:34:43;;;;;;;18.83;12.55;;;7.70;99.90;;;;;;5010937;28;20403;-45
2022/02/13 09:37:09;;;;;;;18.23;11.40;;;8.40;99.60;;;;;;5011145;28;20573;-45
2022/02/13 09:39:34;;;;;;;14.18;10.50;;;9.30;97.80;;;;;;5011023;28;20018;-45
2022/02/13 09:42:00;;;;;;;13.30;10.32;;;10.00;96.80;;;;;;5012469;28;20105;-44
2022/02/13 09:44:25;;;;;;;15.63;11.15;;;10.70;94.70;;;;;;5014263;28;20150;-44
2022/02/13 09:46:51;;;;;;;14.82;10.65;;;11.10;94.00;;;;;;5014457;28;20109;-45
2022/02/13 09:49:18;;;;;;;14.25;9.75;;;11.70;92.60;;;;;;5015364;28;20025;-41
2022/02/13 09:51:44;;;;;;;16.02;10.50;;;12.10;91.30;;;;;;5015187;28;20022;-43
2022/02/13 09:54:10;;;;;;;15.05;10.30;;;12.40;90.90;;;;;;5013879;28;20037;-43
2022/02/13 09:56:36;;;;;;;18.08;10.07;;;12.60;88.80;;;;;;5014343;28;20038;-45
2022/02/13 09:59:03;;;;;;;14.30;9.85;;;12.70;87.90;;;;;;5013794;28;20104;-44
2022/02/13 10:01:39;;;;;;;10.40;8.77;;;12.90;88.30;;;;;;5013090;28;20026;-45
2022/02/13 10:04:06;;;;;;;13.70;10.27;;;12.90;86.50;;;;;;5013968;28;20052;-42
2022/02/13 10:06:35;;;;;;;13.88;9.80;;;12.80;87.80;;;;;;5014144;28;20402;-43
2022/02/13 10:09:01;;;;;;;12.80;9.75;;;13.20;85.20;;;;;;5014204;28;20034;-44
2022/02/13 10:11:33;;;;;;;16.00;10.40;;;13.00;85.30;;;;;;5014315;28;20030;-46
2022/02/13 10:14:10;;;;;;;13.85;10.85;;;13.10;85.90;;;;;;5013602;28;20033;-41
2022/02/13 10:16:40;;;;;;;13.10;9.93;;;13.10;84.90;;;;;;5013796;28;20022;-41
2022/02/13 10:19:09;;;;;;;12.77;9.23;;;12.90;86.00;;;;;;5013877;28;20297;-47
2022/02/13 10:21:36;;;;;;;18.85;10.55;;;12.70;86.90;;;;;;5012734;28;20022;-47
2022/02/13 10:24:28;;;;;;;13.60;10.13;;;12.70;87.20;;;;;;5013590;28;20030;-49
2022/02/13 10:26:56;;;;;;;14.93;10.55;;;12.70;86.70;;;;;;5013838;28;20026;-48
2022/02/13 10:29:27;;;;;;;14.60;11.13;;;13.00;87.20;;;;;;5012582;28;20034;-42
2022/02/13 10:32:11;;;;;;;14.55;10.57;;;12.80;87.40;;;;;;5012059;28;20390;-45
2022/02/13 10:34:37;;;;;;;11.55;9.95;;;12.60;88.60;;;;;;5013437;28;20030;-44
2022/02/13 10:37:02;;;;;;;21.52;11.38;;;12.30;89.60;;;;;;5013795;28;20022;-44
2022/02/13 10:39:28;;;;;;;14.65;10.23;;;11.60;91.10;;;;;;5013617;28;20026;-45
2022/02/13 10:41:54;;;;;;;14.90;11.07;;;11.30;92.00;;;;;;5013871;28;20076;-44
2022/02/13 10:44:29;;;;;;;17.73;11.00;;;11.00;92.30;;;;;;5013188;28;20529;-47
2022/02/13 10:46:55;;;;;;;14.93;11.40;;;10.70;93.60;;;;;;4999372;28;20105;-46
2022/02/13 10:49:22;;;;;;;19.05;11.77;;;10.40;93.80;;;;;;5013556;28;20022;-42
2022/02/13 10:51:49;;;;;;;15.43;10.25;;;10.30;94.50;;;;;;5001509;28;20371;-45
2022/02/13 10:54:15;;;;;;;14.20;11.48;;;10.30;94.80;;;;;;4992749;28;20022;-41
2022/02/13 10:56:41;;;;;;;18.20;11.90;;;10.10;95.50;;;;;;4996927;28;20037;-47
2022/02/13 10:59:13;;;;;;;17.10;11.07;;;9.90;95.30;;;;;;5013276;28;20029;-44
2022/02/13 11:01:40;;;;;;;20.70;12.15;;;9.80;96.00;;;;;;5011987;28;20474;-45
2022/02/13 11:04:06;;;;;;;20.45;11.48;;;9.50;96.90;;;;;;5012297;28;20551;-45
2022/02/13 11:06:33;;;;;;;16.13;12.20;;;9.20;97.30;;;;;;4996561;28;20031;-45
2022/02/13 11:09:21;;;;;;;18.85;11.15;;;9.00;98.00;;;;;;4998197;28;20409;-46
2022/02/13 11:11:48;;;;;;;20.23;11.30;;;9.00;98.50;;;;;;5013947;28;20517;-45
2022/02/13 11:14:24;;;;;;;17.23;10.32;;;9.10;98.60;;;;;;5013124;28;20026;-41
2022/02/13 11:16:52;;;;;;;21.48;12.48;;;9.20;98.90;;;;;;5012547;28;20461;-46
2022/02/13 11:19:19;;;;;;;17.17;10.85;;;9.30;98.70;;;;;;5007433;28;20460;-46
2022/02/13 11:21:45;;;;;;;18.10;11.48;;;9.20;98.10;;;;;;5009371;28;20026;-44
2022/02/13 11:24:47;;;;;;;15.30;11.13;;;9.10;99.00;;;;;;4992678;28;20489;-46
2022/02/13 11:27:17;;;;;;;18.67;11.45;;;8.90;99.00;;;;;;4963883;28;20428;-46
2022/02/13 11:29:52;;;;;;;20.25;11.77;;;8.80;99.60;;;;;;5009463;28;20640;-43
2022/02/13 11:32:35;;;;;;;18.13;11.90;;;8.60;99.90;;;;;;4993309;28;20089;-50
2022/02/13 11:35:01;;;;;;;18.52;11.75;;;8.50;99.90;;;;;;4992891;28;20046;-39
2022/02/13 11:37:40;;;;;;;17.13;11.20;;;8.30;99.90;;;;;;4994421;28;20029;-39
2022/02/13 11:40:06;;;;;;;16.15;11.40;;;8.30;99.90;;;;;;4995498;28;20445;-49
2022/02/13 11:42:38;;;;;;;17.13;11.82;;;8.20;99.90;;;;;;4992539;28;20025;-48
2022/02/13 11:45:20;;;;;;;17.27;11.85;;;8.30;99.90;;;;;;4990682;28;20029;-41
2022/02/13 11:47:46;;;;;;;24.10;15.70;;;8.30;99.90;;;;;;4992260;28;20019;-47
2022/02/13 11:50:21;;;;;;;19.75;11.73;;;8.30;99.90;;;;;;4989979;28;20106;-45
2022/02/13 11:52:58;;;;;;;16.45;11.43;;;8.40;99.90;;;;;;4992463;28;20030;-44
2022/02/13 11:55:26;;;;;;;16.75;11.02;;;8.50;99.90;;;;;;5007600;28;20026;-51
2022/02/13 11:57:59;;;;;;;20.15;11.50;;;8.50;99.90;;;;;;5012371;28;20030;-46
2022/02/13 12:00:32;;;;;;;21.10;11.52;;;8.50;99.90;;;;;;5010718;28;20022;-52
2022/02/13 12:02:57;;;;;;;21.98;12.15;;;8.50;99.90;;;;;;5010077;28;20034;-47
2022/02/13 12:05:23;;;;;;;20.48;11.85;;;8.60;99.90;;;;;;4994043;28;20379;-44
2022/02/13 12:07:51;;;;;;;19.92;12.98;;;8.70;99.90;;;;;;4997433;28;20036;-44
2022/02/13 12:10:21;;;;;;;18.42;11.88;;;8.80;99.90;;;;;;5012917;28;20022;-44
2022/02/13 12:12:47;;;;;;;17.70;11.88;;;8.80;99.90;;;;;;5010651;28;20029;-40
2022/02/13 12:15:14;;;;;;;22.50;12.23;;;8.70;99.90;;;;;;5012490;28;20394;-44
2022/02/13 12:17:40;;;;;;;16.30;11.98;;;8.80;99.90;;;;;;5001734;28;20033;-48
2022/02/13 12:20:08;;;;;;;24.42;12.00;;;8.80;99.90;;;;;;4998439;28;20018;-47
2022/02/13 12:22:37;;;;;;;18.40;12.27;;;8.90;99.90;;;;;;5011847;28;20030;-46
2022/02/13 12:25:05;;;;;;;17.60;11.20;;;9.00;99.90;;;;;;5010628;28;20025;-39
2022/02/13 12:27:31;;;;;;;22.00;11.50;;;9.00;99.90;;;;;;5011819;28;20397;-47
2022/02/13 12:30:00;;;;;;;22.38;11.70;;;9.00;99.90;;;;;;5011923;28;20025;-45
2022/02/13 12:32:31;;;;;;;15.13;11.15;;;9.00;99.90;;;;;;5011572;28;20131;-45
2022/02/13 12:35:09;;;;;;;16.02;10.32;;;9.00;99.90;;;;;;5011787;28;20393;-44